sensor_id;sensor_type;location;lat;lon;timestamp;P1;durP1;ratioP1;P2;durP2;ratioP2
5620;SDS011;2832;50.864;12.186;2024-01-06T00:00:43;1.10;;;1.10;;
5620;SDS011;2832;50.864;12.186;2024-01-06T00:03:15;1.00;;;1.00;;
5620;SDS011;2832;50.864;12.186;2024-01-06T00:05:44;1.10;;;1.10;;
5620;SDS011;2832;50.864;12.186;2024-01-06T00:08:11;1.20;;;1.20;;
5620;SDS011;2832;50.864;12.186;2024-01-06T00:10:41;1.20;;;1.20;;
5620;SDS011;2832;50.864;12.186;2024-01-06T00:13:12;1.10;;;1.10;;
5620;SDS011;2832;50.864;12.186;2024-01-06T00:15:45;1.20;;;1.20;;
5620;SDS011;2832;50.864;12.186;2024-01-06T00:18:14;1.10;;;1.10;;
5620;SDS011;2832;50.864;12.186;2024-01-06T00:20:48;1.20;;;1.20;;
5620;SDS011;2832;50.864;12.186;2024-01-06T00:23:18;1.10;;;1.10;;
5620;SDS011;2832;50.864;12.186;2024-01-06T00:26:04;1.10;;;1.10;;
5620;SDS011;2832;50.864;12.186;2024-01-06T00:29:05;1.20;;;1.20;;
5620;SDS011;2832;50.864;12.186;2024-01-06T00:31:35;1.00;;;1.00;;
5620;SDS011;2832;50.864;12.186;2024-01-06T00:34:19;1.17;;;1.17;;
5620;SDS011;2832;50.864;12.186;2024-01-06T00:36:50;1.10;;;1.10;;
5620;SDS011;2832;50.864;12.186;2024-01-06T00:39:21;1.10;;;1.10;;
5620;SDS011;2832;50.864;12.186;2024-01-06T00:41:55;1.10;;;1.10;;
5620;SDS011;2832;50.864;12.186;2024-01-06T00:44:24;1.20;;;1.20;;
5620;SDS011;2832;50.864;12.186;2024-01-06T00:47:10;1.10;;;1.10;;
5620;SDS011;2832;50.864;12.186;2024-01-06T00:49:38;1.10;;;1.10;;
5620;SDS011;2832;50.864;12.186;2024-01-06T00:52:08;1.10;;;1.10;;
5620;SDS011;2832;50.864;12.186;2024-01-06T00:54:45;1.10;;;1.10;;
5620;SDS011;2832;50.864;12.186;2024-01-06T00:57:16;1.10;;;1.10;;
5620;SDS011;2832;50.864;12.186;2024-01-06T00:59:51;1.20;;;1.20;;
5620;SDS011;2832;50.864;12.186;2024-01-06T01:02:19;1.00;;;1.00;;
5620;SDS011;2832;50.864;12.186;2024-01-06T01:05:01;1.10;;;1.10;;
5620;SDS011;2832;50.864;12.186;2024-01-06T01:07:35;1.20;;;1.20;;
5620;SDS011;2832;50.864;12.186;2024-01-06T01:10:07;1.13;;;1.13;;
5620;SDS011;2832;50.864;12.186;2024-01-06T01:12:35;1.00;;;1.00;;
5620;SDS011;2832;50.864;12.186;2024-01-06T01:15:05;1.00;;;1.00;;
5620;SDS011;2832;50.864;12.186;2024-01-06T01:17:38;1.10;;;1.10;;
5620;SDS011;2832;50.864;12.186;2024-01-06T01:20:10;1.10;;;1.10;;
5620;SDS011;2832;50.864;12.186;2024-01-06T01:22:40;1.10;;;1.10;;
5620;SDS011;2832;50.864;12.186;2024-01-06T01:25:09;1.13;;;1.13;;
5620;SDS011;2832;50.864;12.186;2024-01-06T01:27:40;1.10;;;1.10;;
5620;SDS011;2832;50.864;12.186;2024-01-06T01:30:14;1.00;;;1.00;;
5620;SDS011;2832;50.864;12.186;2024-01-06T01:32:41;1.10;;;1.10;;
5620;SDS011;2832;50.864;12.186;2024-01-06T01:35:09;1.10;;;1.10;;
5620;SDS011;2832;50.864;12.186;2024-01-06T01:37:36;1.20;;;1.20;;
5620;SDS011;2832;50.864;12.186;2024-01-06T01:40:06;1.20;;;1.20;;
5620;SDS011;2832;50.864;12.186;2024-01-06T01:42:35;1.03;;;1.03;;
5620;SDS011;2832;50.864;12.186;2024-01-06T01:45:10;1.20;;;1.20;;
5620;SDS011;2832;50.864;12.186;2024-01-06T01:47:42;1.10;;;1.10;;
5620;SDS011;2832;50.864;12.186;2024-01-06T01:50:29;1.10;;;1.10;;
5620;SDS011;2832;50.864;12.186;2024-01-06T01:53:05;1.10;;;1.10;;
5620;SDS011;2832;50.864;12.186;2024-01-06T01:55:36;1.10;;;1.10;;
5620;SDS011;2832;50.864;12.186;2024-01-06T01:58:17;1.10;;;1.10;;
5620;SDS011;2832;50.864;12.186;2024-01-06T02:00:59;1.10;;;1.10;;
5620;SDS011;2832;50.864;12.186;2024-01-06T02:03:33;1.10;;;1.10;;
5620;SDS011;2832;50.864;12.186;2024-01-06T02:06:05;1.10;;;1.10;;
5620;SDS011;2832;50.864;12.186;2024-01-06T02:08:34;1.17;;;1.17;;
5620;SDS011;2832;50.864;12.186;2024-01-06T02:11:05;1.10;;;1.10;;
5620;SDS011;2832;50.864;12.186;2024-01-06T02:13:36;1.10;;;1.10;;
5620;SDS011;2832;50.864;12.186;2024-01-06T02:16:07;1.17;;;1.17;;
5620;SDS011;2832;50.864;12.186;2024-01-06T02:19:02;1.10;;;1.10;;
5620;SDS011;2832;50.864;12.186;2024-01-06T02:21:39;1.20;;;1.20;;
5620;SDS011;2832;50.864;12.186;2024-01-06T02:24:14;1.10;;;1.10;;
5620;SDS011;2832;50.864;12.186;2024-01-06T02:26:43;1.03;;;1.03;;
5620;SDS011;2832;50.864;12.186;2024-01-06T02:29:20;1.10;;;1.10;;
5620;SDS011;2832;50.864;12.186;2024-01-06T02:32:00;1.10;;;1.10;;
5620;SDS011;2832;50.864;12.186;2024-01-06T02:34:28;1.00;;;1.00;;
5620;SDS011;2832;50.864;12.186;2024-01-06T02:37:04;1.10;;;1.10;;
5620;SDS011;2832;50.864;12.186;2024-01-06T02:39:42;1.10;;;1.10;;
5620;SDS011;2832;50.864;12.186;2024-01-06T02:42:12;1.10;;;1.10;;
5620;SDS011;2832;50.864;12.186;2024-01-06T02:44:40;1.03;;;1.03;;
5620;SDS011;2832;50.864;12.186;2024-01-06T02:47:10;1.10;;;1.10;;
5620;SDS011;2832;50.864;12.186;2024-01-06T02:49:38;1.10;;;1.10;;
5620;SDS011;2832;50.864;12.186;2024-01-06T02:52:12;1.00;;;1.00;;
5620;SDS011;2832;50.864;12.186;2024-01-06T02:54:50;1.10;;;1.10;;
5620;SDS011;2832;50.864;12.186;2024-01-06T02:57:20;1.10;;;1.10;;
5620;SDS011;2832;50.864;12.186;2024-01-06T02:59:49;1.10;;;1.10;;
5620;SDS011;2832;50.864;12.186;2024-01-06T03:02:21;1.00;;;1.00;;
5620;SDS011;2832;50.864;12.186;2024-01-06T03:04:49;1.10;;;1.10;;
5620;SDS011;2832;50.864;12.186;2024-01-06T03:07:18;1.13;;;1.13;;
5620;SDS011;2832;50.864;12.186;2024-01-06T03:10:09;1.00;;;1.00;;
5620;SDS011;2832;50.864;12.186;2024-01-06T03:12:51;1.10;;;1.10;;
5620;SDS011;2832;50.864;12.186;2024-01-06T03:15:34;1.20;;;1.20;;
5620;SDS011;2832;50.864;12.186;2024-01-06T03:18:18;1.10;;;1.10;;
5620;SDS011;2832;50.864;12.186;2024-01-06T03:21:19;1.00;;;1.00;;
5620;SDS011;2832;50.864;12.186;2024-01-06T03:23:51;1.00;;;1.00;;
5620;SDS011;2832;50.864;12.186;2024-01-06T03:26:37;1.10;;;1.10;;
5620;SDS011;2832;50.864;12.186;2024-01-06T03:29:09;1.07;;;1.07;;
5620;SDS011;2832;50.864;12.186;2024-01-06T03:31:41;1.10;;;1.10;;
5620;SDS011;2832;50.864;12.186;2024-01-06T03:34:17;1.00;;;1.00;;
5620;SDS011;2832;50.864;12.186;2024-01-06T03:36:46;1.00;;;1.00;;
5620;SDS011;2832;50.864;12.186;2024-01-06T03:39:14;1.10;;;1.10;;
5620;SDS011;2832;50.864;12.186;2024-01-06T03:41:48;1.13;;;1.13;;
5620;SDS011;2832;50.864;12.186;2024-01-06T03:44:17;1.00;;;1.00;;
5620;SDS011;2832;50.864;12.186;2024-01-06T03:46:48;1.00;;;1.00;;
5620;SDS011;2832;50.864;12.186;2024-01-06T03:49:20;1.10;;;1.10;;
5620;SDS011;2832;50.864;12.186;2024-01-06T03:51:49;1.20;;;1.20;;
5620;SDS011;2832;50.864;12.186;2024-01-06T03:54:16;1.10;;;1.10;;
5620;SDS011;2832;50.864;12.186;2024-01-06T03:56:54;1.10;;;1.10;;
5620;SDS011;2832;50.864;12.186;2024-01-06T03:59:22;1.03;;;1.03;;
5620;SDS011;2832;50.864;12.186;2024-01-06T04:01:50;1.10;;;1.10;;
5620;SDS011;2832;50.864;12.186;2024-01-06T04:04:26;1.10;;;1.10;;
5620;SDS011;2832;50.864;12.186;2024-01-06T04:06:56;1.10;;;1.10;;
5620;SDS011;2832;50.864;12.186;2024-01-06T04:09:27;1.10;;;1.10;;
5620;SDS011;2832;50.864;12.186;2024-01-06T04:11:58;1.10;;;1.10;;
5620;SDS011;2832;50.864;12.186;2024-01-06T04:14:27;1.10;;;1.10;;
5620;SDS011;2832;50.864;12.186;2024-01-06T04:16:55;1.10;;;1.10;;
5620;SDS011;2832;50.864;12.186;2024-01-06T04:19:34;1.10;;;1.10;;
5620;SDS011;2832;50.864;12.186;2024-01-06T04:22:11;1.10;;;1.10;;
5620;SDS011;2832;50.864;12.186;2024-01-06T04:24:42;1.10;;;1.10;;
5620;SDS011;2832;50.864;12.186;2024-01-06T04:27:36;1.10;;;1.10;;
5620;SDS011;2832;50.864;12.186;2024-01-06T04:30:20;1.00;;;1.00;;
5620;SDS011;2832;50.864;12.186;2024-01-06T04:33:09;1.20;;;1.20;;
5620;SDS011;2832;50.864;12.186;2024-01-06T04:35:45;1.10;;;1.10;;
5620;SDS011;2832;50.864;12.186;2024-01-06T04:38:16;1.10;;;1.10;;
5620;SDS011;2832;50.864;12.186;2024-01-06T04:40:46;1.10;;;1.10;;
5620;SDS011;2832;50.864;12.186;2024-01-06T04:43:21;1.10;;;1.10;;
5620;SDS011;2832;50.864;12.186;2024-01-06T04:45:49;1.10;;;1.10;;
5620;SDS011;2832;50.864;12.186;2024-01-06T04:48:17;1.10;;;1.10;;
5620;SDS011;2832;50.864;12.186;2024-01-06T04:50:59;1.23;;;1.23;;
5620;SDS011;2832;50.864;12.186;2024-01-06T04:53:29;1.00;;;1.00;;
5620;SDS011;2832;50.864;12.186;2024-01-06T04:56:02;1.00;;;1.00;;
5620;SDS011;2832;50.864;12.186;2024-01-06T04:58:37;1.10;;;1.10;;
5620;SDS011;2832;50.864;12.186;2024-01-06T05:01:16;1.00;;;1.00;;
5620;SDS011;2832;50.864;12.186;2024-01-06T05:03:47;1.07;;;1.07;;
5620;SDS011;2832;50.864;12.186;2024-01-06T05:06:17;1.10;;;1.10;;
5620;SDS011;2832;50.864;12.186;2024-01-06T05:08:45;1.10;;;1.10;;
5620;SDS011;2832;50.864;12.186;2024-01-06T05:11:13;1.10;;;1.10;;
5620;SDS011;2832;50.864;12.186;2024-01-06T05:14:08;1.10;;;1.10;;
5620;SDS011;2832;50.864;12.186;2024-01-06T05:16:41;1.10;;;1.10;;
5620;SDS011;2832;50.864;12.186;2024-01-06T05:19:10;1.10;;;1.10;;
5620;SDS011;2832;50.864;12.186;2024-01-06T05:21:47;1.10;;;1.10;;
5620;SDS011;2832;50.864;12.186;2024-01-06T05:24:21;1.20;;;1.20;;
5620;SDS011;2832;50.864;12.186;2024-01-06T05:26:49;1.10;;;1.10;;
5620;SDS011;2832;50.864;12.186;2024-01-06T05:29:20;1.00;;;1.00;;
5620;SDS011;2832;50.864;12.186;2024-01-06T05:31:53;1.27;;;1.27;;
5620;SDS011;2832;50.864;12.186;2024-01-06T05:34:32;1.10;;;1.10;;
5620;SDS011;2832;50.864;12.186;2024-01-06T05:37:01;1.10;;;1.10;;
5620;SDS011;2832;50.864;12.186;2024-01-06T05:39:30;1.00;;;1.00;;
5620;SDS011;2832;50.864;12.186;2024-01-06T05:42:00;1.10;;;1.10;;
5620;SDS011;2832;50.864;12.186;2024-01-06T05:44:31;1.10;;;1.10;;
5620;SDS011;2832;50.864;12.186;2024-01-06T05:47:04;1.00;;;1.00;;
5620;SDS011;2832;50.864;12.186;2024-01-06T05:49:32;1.10;;;1.10;;
5620;SDS011;2832;50.864;12.186;2024-01-06T05:52:02;1.10;;;1.10;;
5620;SDS011;2832;50.864;12.186;2024-01-06T05:54:31;1.00;;;1.00;;
5620;SDS011;2832;50.864;12.186;2024-01-06T05:57:02;1.00;;;1.00;;
5620;SDS011;2832;50.864;12.186;2024-01-06T05:59:34;1.00;;;1.00;;
5620;SDS011;2832;50.864;12.186;2024-01-06T06:02:17;1.10;;;1.10;;
5620;SDS011;2832;50.864;12.186;2024-01-06T06:04:47;1.00;;;1.00;;
5620;SDS011;2832;50.864;12.186;2024-01-06T06:07:28;1.10;;;1.10;;
5620;SDS011;2832;50.864;12.186;2024-01-06T06:09:59;1.00;;;1.00;;
5620;SDS011;2832;50.864;12.186;2024-01-06T06:12:30;1.00;;;1.00;;
5620;SDS011;2832;50.864;12.186;2024-01-06T06:15:04;1.10;;;1.10;;
5620;SDS011;2832;50.864;12.186;2024-01-06T06:17:36;1.00;;;1.00;;
5620;SDS011;2832;50.864;12.186;2024-01-06T06:20:05;1.10;;;1.10;;
5620;SDS011;2832;50.864;12.186;2024-01-06T06:22:35;1.10;;;1.10;;
5620;SDS011;2832;50.864;12.186;2024-01-06T06:25:07;1.20;;;1.20;;
5620;SDS011;2832;50.864;12.186;2024-01-06T06:27:37;1.10;;;1.10;;
5620;SDS011;2832;50.864;12.186;2024-01-06T06:37:46;1.10;;;1.10;;
5620;SDS011;2832;50.864;12.186;2024-01-06T06:40:18;1.00;;;1.00;;
5620;SDS011;2832;50.864;12.186;2024-01-06T06:42:49;1.00;;;1.00;;
5620;SDS011;2832;50.864;12.186;2024-01-06T06:45:19;1.10;;;1.10;;
5620;SDS011;2832;50.864;12.186;2024-01-06T06:48:14;1.10;;;1.10;;
5620;SDS011;2832;50.864;12.186;2024-01-06T06:50:46;1.00;;;1.00;;
5620;SDS011;2832;50.864;12.186;2024-01-06T06:53:16;1.20;;;1.20;;
5620;SDS011;2832;50.864;12.186;2024-01-06T06:55:49;1.07;;;1.07;;
5620;SDS011;2832;50.864;12.186;2024-01-06T06:58:19;1.10;;;1.10;;
5620;SDS011;2832;50.864;12.186;2024-01-06T07:00:47;1.10;;;1.10;;
5620;SDS011;2832;50.864;12.186;2024-01-06T07:03:15;1.20;;;1.20;;
5620;SDS011;2832;50.864;12.186;2024-01-06T07:05:47;1.00;;;1.00;;
5620;SDS011;2832;50.864;12.186;2024-01-06T07:08:20;1.10;;;1.10;;
5620;SDS011;2832;50.864;12.186;2024-01-06T07:10:49;1.10;;;1.10;;
5620;SDS011;2832;50.864;12.186;2024-01-06T07:13:17;1.10;;;1.10;;
5620;SDS011;2832;50.864;12.186;2024-01-06T07:15:47;1.20;;;1.20;;
5620;SDS011;2832;50.864;12.186;2024-01-06T07:18:38;1.10;;;1.10;;
5620;SDS011;2832;50.864;12.186;2024-01-06T07:21:09;1.10;;;1.10;;
5620;SDS011;2832;50.864;12.186;2024-01-06T07:23:38;1.10;;;1.10;;
5620;SDS011;2832;50.864;12.186;2024-01-06T07:26:08;1.20;;;1.20;;
5620;SDS011;2832;50.864;12.186;2024-01-06T07:28:44;1.13;;;1.13;;
5620;SDS011;2832;50.864;12.186;2024-01-06T07:31:17;1.20;;;1.20;;
5620;SDS011;2832;50.864;12.186;2024-01-06T07:33:45;1.10;;;1.10;;
5620;SDS011;2832;50.864;12.186;2024-01-06T07:36:12;1.20;;;1.20;;
5620;SDS011;2832;50.864;12.186;2024-01-06T07:38:53;1.10;;;1.10;;
5620;SDS011;2832;50.864;12.186;2024-01-06T07:41:27;1.20;;;1.20;;
5620;SDS011;2832;50.864;12.186;2024-01-06T07:43:57;1.10;;;1.10;;
5620;SDS011;2832;50.864;12.186;2024-01-06T07:46:28;1.10;;;1.10;;
5620;SDS011;2832;50.864;12.186;2024-01-06T07:48:57;1.00;;;1.00;;
5620;SDS011;2832;50.864;12.186;2024-01-06T07:51:34;1.10;;;1.10;;
5620;SDS011;2832;50.864;12.186;2024-01-06T07:54:28;1.00;;;1.00;;
5620;SDS011;2832;50.864;12.186;2024-01-06T07:56:58;1.10;;;1.10;;
5620;SDS011;2832;50.864;12.186;2024-01-06T07:59:30;1.10;;;1.10;;
5620;SDS011;2832;50.864;12.186;2024-01-06T08:01:58;1.10;;;1.10;;
5620;SDS011;2832;50.864;12.186;2024-01-06T08:04:28;1.07;;;1.07;;
5620;SDS011;2832;50.864;12.186;2024-01-06T08:06:56;1.00;;;1.00;;
5620;SDS011;2832;50.864;12.186;2024-01-06T08:09:26;1.00;;;1.00;;
5620;SDS011;2832;50.864;12.186;2024-01-06T08:11:58;1.00;;;1.00;;
5620;SDS011;2832;50.864;12.186;2024-01-06T08:14:48;1.10;;;1.10;;
5620;SDS011;2832;50.864;12.186;2024-01-06T08:17:18;1.00;;;1.00;;
5620;SDS011;2832;50.864;12.186;2024-01-06T08:19:51;1.00;;;1.00;;
5620;SDS011;2832;50.864;12.186;2024-01-06T08:22:20;1.10;;;1.10;;
5620;SDS011;2832;50.864;12.186;2024-01-06T08:24:51;1.10;;;1.10;;
5620;SDS011;2832;50.864;12.186;2024-01-06T08:27:19;1.00;;;1.00;;
5620;SDS011;2832;50.864;12.186;2024-01-06T08:29:48;1.10;;;1.10;;
5620;SDS011;2832;50.864;12.186;2024-01-06T08:32:16;1.10;;;1.10;;
5620;SDS011;2832;50.864;12.186;2024-01-06T08:34:44;1.07;;;1.07;;
5620;SDS011;2832;50.864;12.186;2024-01-06T08:37:14;1.03;;;1.03;;
5620;SDS011;2832;50.864;12.186;2024-01-06T08:39:42;1.10;;;1.10;;
5620;SDS011;2832;50.864;12.186;2024-01-06T08:42:15;1.20;;;1.20;;
5620;SDS011;2832;50.864;12.186;2024-01-06T08:44:45;1.10;;;1.10;;
5620;SDS011;2832;50.864;12.186;2024-01-06T08:47:13;1.10;;;1.10;;
5620;SDS011;2832;50.864;12.186;2024-01-06T08:50:04;1.10;;;1.10;;
5620;SDS011;2832;50.864;12.186;2024-01-06T08:52:51;1.10;;;1.10;;
5620;SDS011;2832;50.864;12.186;2024-01-06T08:55:22;1.10;;;1.10;;
5620;SDS011;2832;50.864;12.186;2024-01-06T08:57:53;1.20;;;1.20;;
5620;SDS011;2832;50.864;12.186;2024-01-06T09:00:28;1.10;;;1.10;;
5620;SDS011;2832;50.864;12.186;2024-01-06T09:03:03;1.20;;;1.20;;
5620;SDS011;2832;50.864;12.186;2024-01-06T09:05:32;1.03;;;1.03;;
5620;SDS011;2832;50.864;12.186;2024-01-06T09:08:02;1.10;;;1.10;;
5620;SDS011;2832;50.864;12.186;2024-01-06T09:10:54;1.00;;;1.00;;
5620;SDS011;2832;50.864;12.186;2024-01-06T09:13:25;1.00;;;1.00;;
5620;SDS011;2832;50.864;12.186;2024-01-06T09:15:59;1.10;;;1.10;;
5620;SDS011;2832;50.864;12.186;2024-01-06T09:18:30;1.20;;;1.20;;
5620;SDS011;2832;50.864;12.186;2024-01-06T09:21:08;1.00;;;1.00;;
5620;SDS011;2832;50.864;12.186;2024-01-06T09:23:55;1.03;;;1.03;;
5620;SDS011;2832;50.864;12.186;2024-01-06T09:26:47;1.10;;;1.10;;
5620;SDS011;2832;50.864;12.186;2024-01-06T09:29:20;1.03;;;1.03;;
5620;SDS011;2832;50.864;12.186;2024-01-06T09:31:52;1.10;;;1.10;;
5620;SDS011;2832;50.864;12.186;2024-01-06T09:34:19;1.10;;;1.10;;
5620;SDS011;2832;50.864;12.186;2024-01-06T09:36:51;1.00;;;1.00;;
5620;SDS011;2832;50.864;12.186;2024-01-06T09:39:25;1.00;;;1.00;;
5620;SDS011;2832;50.864;12.186;2024-01-06T09:42:08;1.10;;;1.10;;
5620;SDS011;2832;50.864;12.186;2024-01-06T09:45:02;1.10;;;1.10;;
5620;SDS011;2832;50.864;12.186;2024-01-06T09:47:35;1.10;;;1.10;;
5620;SDS011;2832;50.864;12.186;2024-01-06T09:50:10;1.10;;;1.10;;
5620;SDS011;2832;50.864;12.186;2024-01-06T09:52:42;1.10;;;1.10;;
5620;SDS011;2832;50.864;12.186;2024-01-06T09:55:32;1.00;;;1.00;;
5620;SDS011;2832;50.864;12.186;2024-01-06T09:58:02;1.10;;;1.10;;
5620;SDS011;2832;50.864;12.186;2024-01-06T10:00:57;1.10;;;1.10;;
5620;SDS011;2832;50.864;12.186;2024-01-06T10:03:27;1.00;;;1.00;;
5620;SDS011;2832;50.864;12.186;2024-01-06T10:06:04;1.10;;;1.10;;
5620;SDS011;2832;50.864;12.186;2024-01-06T10:08:35;1.10;;;1.10;;
5620;SDS011;2832;50.864;12.186;2024-01-06T10:11:07;1.10;;;1.10;;
5620;SDS011;2832;50.864;12.186;2024-01-06T10:13:35;1.10;;;1.10;;
5620;SDS011;2832;50.864;12.186;2024-01-06T10:19:56;1.13;;;1.13;;
5620;SDS011;2832;50.864;12.186;2024-01-06T10:22:31;1.10;;;1.10;;
5620;SDS011;2832;50.864;12.186;2024-01-06T10:25:05;1.00;;;1.00;;
5620;SDS011;2832;50.864;12.186;2024-01-06T10:27:37;1.10;;;1.10;;
5620;SDS011;2832;50.864;12.186;2024-01-06T10:30:12;1.00;;;1.00;;
5620;SDS011;2832;50.864;12.186;2024-01-06T10:32:43;1.10;;;1.10;;
5620;SDS011;2832;50.864;12.186;2024-01-06T10:35:13;1.10;;;1.10;;
5620;SDS011;2832;50.864;12.186;2024-01-06T10:37:46;1.10;;;1.10;;
5620;SDS011;2832;50.864;12.186;2024-01-06T10:40:25;1.10;;;1.10;;
5620;SDS011;2832;50.864;12.186;2024-01-06T10:42:54;1.10;;;1.10;;
5620;SDS011;2832;50.864;12.186;2024-01-06T10:45:39;1.10;;;1.10;;
5620;SDS011;2832;50.864;12.186;2024-01-06T10:48:33;1.00;;;1.00;;
5620;SDS011;2832;50.864;12.186;2024-01-06T10:51:06;1.00;;;1.00;;
5620;SDS011;2832;50.864;12.186;2024-01-06T10:53:45;1.10;;;1.10;;
5620;SDS011;2832;50.864;12.186;2024-01-06T10:56:20;1.00;;;1.00;;
5620;SDS011;2832;50.864;12.186;2024-01-06T10:58:53;1.10;;;1.10;;
5620;SDS011;2832;50.864;12.186;2024-01-06T11:01:23;1.00;;;1.00;;
5620;SDS011;2832;50.864;12.186;2024-01-06T11:03:52;1.10;;;1.10;;
5620;SDS011;2832;50.864;12.186;2024-01-06T11:06:29;1.00;;;1.00;;
5620;SDS011;2832;50.864;12.186;2024-01-06T11:09:02;1.10;;;1.10;;
5620;SDS011;2832;50.864;12.186;2024-01-06T11:11:38;1.10;;;1.10;;
5620;SDS011;2832;50.864;12.186;2024-01-06T11:14:17;1.10;;;1.10;;
5620;SDS011;2832;50.864;12.186;2024-01-06T11:16:49;1.10;;;1.10;;
5620;SDS011;2832;50.864;12.186;2024-01-06T11:19:44;1.20;;;1.20;;
5620;SDS011;2832;50.864;12.186;2024-01-06T11:22:21;1.10;;;1.10;;
5620;SDS011;2832;50.864;12.186;2024-01-06T11:25:03;1.03;;;1.03;;
5620;SDS011;2832;50.864;12.186;2024-01-06T11:27:35;1.10;;;1.10;;
5620;SDS011;2832;50.864;12.186;2024-01-06T11:30:03;1.00;;;1.00;;
5620;SDS011;2832;50.864;12.186;2024-01-06T11:32:34;1.00;;;1.00;;
5620;SDS011;2832;50.864;12.186;2024-01-06T11:35:04;1.10;;;1.10;;
5620;SDS011;2832;50.864;12.186;2024-01-06T11:37:52;1.10;;;1.10;;
5620;SDS011;2832;50.864;12.186;2024-01-06T11:40:37;1.10;;;1.10;;
5620;SDS011;2832;50.864;12.186;2024-01-06T11:43:15;1.10;;;1.10;;
5620;SDS011;2832;50.864;12.186;2024-01-06T11:46:00;1.10;;;1.10;;
5620;SDS011;2832;50.864;12.186;2024-01-06T11:48:33;1.00;;;1.00;;
5620;SDS011;2832;50.864;12.186;2024-01-06T11:51:04;1.10;;;1.10;;
5620;SDS011;2832;50.864;12.186;2024-01-06T11:53:33;1.10;;;1.10;;
5620;SDS011;2832;50.864;12.186;2024-01-06T11:56:05;1.10;;;1.10;;
5620;SDS011;2832;50.864;12.186;2024-01-06T11:58:39;1.10;;;1.10;;
5620;SDS011;2832;50.864;12.186;2024-01-06T12:01:11;1.10;;;1.10;;
5620;SDS011;2832;50.864;12.186;2024-01-06T12:03:39;1.00;;;1.00;;
5620;SDS011;2832;50.864;12.186;2024-01-06T12:06:10;1.10;;;1.10;;
5620;SDS011;2832;50.864;12.186;2024-01-06T12:09:04;1.10;;;1.10;;
5620;SDS011;2832;50.864;12.186;2024-01-06T12:11:45;1.10;;;1.10;;
5620;SDS011;2832;50.864;12.186;2024-01-06T12:14:16;1.17;;;1.17;;
5620;SDS011;2832;50.864;12.186;2024-01-06T12:16:56;1.00;;;1.00;;
5620;SDS011;2832;50.864;12.186;2024-01-06T12:19:31;1.00;;;1.00;;
5620;SDS011;2832;50.864;12.186;2024-01-06T12:22:25;1.10;;;1.10;;
5620;SDS011;2832;50.864;12.186;2024-01-06T12:25:05;1.10;;;1.10;;
5620;SDS011;2832;50.864;12.186;2024-01-06T12:27:41;1.10;;;1.10;;
5620;SDS011;2832;50.864;12.186;2024-01-06T12:30:18;1.00;;;1.00;;
5620;SDS011;2832;50.864;12.186;2024-01-06T12:32:49;1.00;;;1.00;;
5620;SDS011;2832;50.864;12.186;2024-01-06T12:35:24;1.00;;;1.00;;
5620;SDS011;2832;50.864;12.186;2024-01-06T12:37:58;1.10;;;1.10;;
5620;SDS011;2832;50.864;12.186;2024-01-06T12:40:39;1.10;;;1.10;;
5620;SDS011;2832;50.864;12.186;2024-01-06T12:43:26;1.10;;;1.10;;
5620;SDS011;2832;50.864;12.186;2024-01-06T12:45:56;1.10;;;1.10;;
5620;SDS011;2832;50.864;12.186;2024-01-06T12:48:24;1.00;;;1.00;;
5620;SDS011;2832;50.864;12.186;2024-01-06T12:50:52;1.10;;;1.10;;
5620;SDS011;2832;50.864;12.186;2024-01-06T12:53:23;1.10;;;1.10;;
5620;SDS011;2832;50.864;12.186;2024-01-06T12:55:52;1.10;;;1.10;;
5620;SDS011;2832;50.864;12.186;2024-01-06T12:58:23;1.17;;;1.17;;
5620;SDS011;2832;50.864;12.186;2024-01-06T13:00:54;1.10;;;1.10;;
5620;SDS011;2832;50.864;12.186;2024-01-06T13:03:30;1.10;;;1.10;;
5620;SDS011;2832;50.864;12.186;2024-01-06T13:06:01;1.10;;;1.10;;
5620;SDS011;2832;50.864;12.186;2024-01-06T13:08:40;1.03;;;1.03;;
5620;SDS011;2832;50.864;12.186;2024-01-06T13:11:11;1.10;;;1.10;;
5620;SDS011;2832;50.864;12.186;2024-01-06T13:13:47;0.20;;;0.20;;
5620;SDS011;2832;50.864;12.186;2024-01-06T13:16:24;0.27;;;0.27;;
5620;SDS011;2832;50.864;12.186;2024-01-06T13:18:53;0.20;;;0.20;;
5620;SDS011;2832;50.864;12.186;2024-01-06T13:21:23;0.30;;;0.30;;
5620;SDS011;2832;50.864;12.186;2024-01-06T13:24:04;0.30;;;0.30;;
5620;SDS011;2832;50.864;12.186;2024-01-06T13:26:36;0.20;;;0.20;;
5620;SDS011;2832;50.864;12.186;2024-01-06T13:29:05;0.20;;;0.20;;
5620;SDS011;2832;50.864;12.186;2024-01-06T13:31:34;0.27;;;0.27;;
5620;SDS011;2832;50.864;12.186;2024-01-06T13:34:09;0.20;;;0.20;;
5620;SDS011;2832;50.864;12.186;2024-01-06T13:36:48;0.20;;;0.20;;
5620;SDS011;2832;50.864;12.186;2024-01-06T13:39:32;0.20;;;0.20;;
5620;SDS011;2832;50.864;12.186;2024-01-06T13:42:06;1.10;;;1.10;;
5620;SDS011;2832;50.864;12.186;2024-01-06T13:44:39;1.10;;;1.10;;
5620;SDS011;2832;50.864;12.186;2024-01-06T13:47:15;1.00;;;1.00;;
5620;SDS011;2832;50.864;12.186;2024-01-06T13:49:47;1.10;;;1.10;;
5620;SDS011;2832;50.864;12.186;2024-01-06T13:52:17;1.00;;;1.00;;
5620;SDS011;2832;50.864;12.186;2024-01-06T13:54:50;1.10;;;1.10;;
5620;SDS011;2832;50.864;12.186;2024-01-06T13:57:24;1.10;;;1.10;;
5620;SDS011;2832;50.864;12.186;2024-01-06T13:59:53;1.10;;;1.10;;
5620;SDS011;2832;50.864;12.186;2024-01-06T14:02:41;1.10;;;1.10;;
5620;SDS011;2832;50.864;12.186;2024-01-06T14:05:15;1.10;;;1.10;;
5620;SDS011;2832;50.864;12.186;2024-01-06T14:08:05;1.00;;;1.00;;
5620;SDS011;2832;50.864;12.186;2024-01-06T14:10:41;1.10;;;1.10;;
5620;SDS011;2832;50.864;12.186;2024-01-06T14:13:19;1.10;;;1.10;;
5620;SDS011;2832;50.864;12.186;2024-01-06T14:16:04;1.10;;;1.10;;
5620;SDS011;2832;50.864;12.186;2024-01-06T14:18:35;1.10;;;1.10;;
5620;SDS011;2832;50.864;12.186;2024-01-06T14:21:08;1.10;;;1.10;;
5620;SDS011;2832;50.864;12.186;2024-01-06T14:23:41;1.10;;;1.10;;
5620;SDS011;2832;50.864;12.186;2024-01-06T14:26:11;1.00;;;1.00;;
5620;SDS011;2832;50.864;12.186;2024-01-06T14:28:40;1.10;;;1.10;;
5620;SDS011;2832;50.864;12.186;2024-01-06T14:31:14;1.00;;;1.00;;
5620;SDS011;2832;50.864;12.186;2024-01-06T14:33:44;1.07;;;1.07;;
5620;SDS011;2832;50.864;12.186;2024-01-06T14:36:12;1.10;;;1.10;;
5620;SDS011;2832;50.864;12.186;2024-01-06T14:38:44;1.10;;;1.10;;
5620;SDS011;2832;50.864;12.186;2024-01-06T14:41:21;1.10;;;1.10;;
5620;SDS011;2832;50.864;12.186;2024-01-06T14:44:01;1.10;;;1.10;;
5620;SDS011;2832;50.864;12.186;2024-01-06T14:46:43;1.10;;;1.10;;
5620;SDS011;2832;50.864;12.186;2024-01-06T14:49:11;1.10;;;1.10;;
5620;SDS011;2832;50.864;12.186;2024-01-06T14:51:39;1.00;;;1.00;;
5620;SDS011;2832;50.864;12.186;2024-01-06T14:54:16;1.10;;;1.10;;
5620;SDS011;2832;50.864;12.186;2024-01-06T14:56:44;1.00;;;1.00;;
5620;SDS011;2832;50.864;12.186;2024-01-06T14:59:15;1.00;;;1.00;;
5620;SDS011;2832;50.864;12.186;2024-01-06T15:01:44;1.10;;;1.10;;
5620;SDS011;2832;50.864;12.186;2024-01-06T15:04:31;1.10;;;1.10;;
5620;SDS011;2832;50.864;12.186;2024-01-06T15:07:01;1.10;;;1.10;;
5620;SDS011;2832;50.864;12.186;2024-01-06T15:09:44;1.20;;;1.20;;
5620;SDS011;2832;50.864;12.186;2024-01-06T15:12:13;1.10;;;1.10;;
5620;SDS011;2832;50.864;12.186;2024-01-06T15:14:57;1.00;;;1.00;;
5620;SDS011;2832;50.864;12.186;2024-01-06T15:17:30;1.00;;;1.00;;
5620;SDS011;2832;50.864;12.186;2024-01-06T15:19:59;1.10;;;1.10;;
5620;SDS011;2832;50.864;12.186;2024-01-06T15:22:31;1.07;;;1.07;;
5620;SDS011;2832;50.864;12.186;2024-01-06T15:24:59;1.10;;;1.10;;
5620;SDS011;2832;50.864;12.186;2024-01-06T15:27:35;1.10;;;1.10;;
5620;SDS011;2832;50.864;12.186;2024-01-06T15:30:08;1.10;;;1.10;;
5620;SDS011;2832;50.864;12.186;2024-01-06T15:32:42;1.10;;;1.10;;
5620;SDS011;2832;50.864;12.186;2024-01-06T15:35:20;1.10;;;1.10;;
5620;SDS011;2832;50.864;12.186;2024-01-06T15:37:48;1.00;;;1.00;;
5620;SDS011;2832;50.864;12.186;2024-01-06T15:40:19;1.13;;;1.13;;
5620;SDS011;2832;50.864;12.186;2024-01-06T15:42:47;1.10;;;1.10;;
5620;SDS011;2832;50.864;12.186;2024-01-06T15:45:16;1.10;;;1.10;;
5620;SDS011;2832;50.864;12.186;2024-01-06T15:47:49;1.10;;;1.10;;
5620;SDS011;2832;50.864;12.186;2024-01-06T15:50:28;1.10;;;1.10;;
5620;SDS011;2832;50.864;12.186;2024-01-06T15:53:08;1.00;;;1.00;;